Central Wisconsin Airport
KCWA : now visible

Airfield :











YOU CAN JOIN US ON...

 
LOGIN :

Register | Disclaimer

   EN    FR    IT 

 









Legend :    VFR   Marginal VFR   IFR   Intensive IFR   Very Intensive IFR
Visi :
Ceiling :
>= 8 km
>= 3000ft
5 to 8 km
1000 to 3000 ft
1500m to 5 km
500 to 1000 ft
800 to 1500m
200 to 500 ft
< 800m
< 200 ft
Symbols :   Thunderstorms  Fog  Heavy snow  Heavy precipitations  Wind > 20 kt






- Airport Elevation : 1277 ft


KCWA - Central Wisconsin

CURRENT METAR :
  • 030915Z AUTO 34007KT 10SM CLR 10/08 A3011 RMK AO2

EXPIRED METARs :
  • 030855Z AUTO 33006KT 10SM CLR 10/08 A3010 RMK AO2
  • 030835Z AUTO 35006KT 10SM CLR 11/07 A3010 RMK AO2
  • 030815Z AUTO 36007KT 10SM SCT060 11/07 A3010 RMK AO2
  • 030755Z AUTO 36006KT 10SM BKN060 12/07 A3010 RMK AO2
  • 030735Z AUTO 36007KT 10SM OVC060 12/07 A3010 RMK AO2
  • 030715Z AUTO 01009KT 10SM SCT050 BKN060 OVC100 12/07 A3010 RMK AO2
  • 030655Z AUTO 01008KT 10SM BKN050 OVC060 13/08 A3010 RMK AO2
  • 030635Z AUTO 01009KT 10SM OVC050 13/08 A3010 RMK AO2
  • 030615Z AUTO 01008KT 10SM OVC050 13/08 A3010 RMK AO2

TAF KCWA
Valid from the 03 at 06:00 until the 04 at 06:00 UTC


030520Z 0306/0406 01007KT P6SM SCT060 BKN100
FM031700 02007G15KT P6SM BKN045
FM032200 01007KT P6SM SCT060
FM040100 02003KT P6SM SKC
KZMP FIR / North America



MET'MAP, your aeronautical weather chart ! - Copyright ORBIFLY December 2007 - Disclaimer

ORBIFLY MET'MAP TEAM :

Programming & Development : Alexandra Zaïnal
Concept & original design : Baudouin d'Aumeries
Assistance for programming : Marc-Olivier Méhu
Technical & hardware support : Manuel Goepfert

Contact : metmap@orbifly.com




SOURCES & CREDITS :

   NOAA       Earth
Advisory